Beauval, Canada
Current Conditions -  °F | °C
As of 11:00 AM on Friday 28 Nov 2014 (Local Time) from CYVT Reporting Station
Light Snow Light Snow  
Wind Chill: -33°   Ceiling: 1000
Heat Index: -23°   Visibility: 1mi
Dew Point: -26°   Wind: 9mph
Humidity: 77%   Direction: 40°NE
Pressure: 30.02"   Gusts: NA
Location:  55.15°N, 107.62°W
Report Text: CYVT 281700Z 04008KT 1SM -SN DRSN VV010 M23/M26 A3002 RMK SN8 SLP216
Loading
Personal Weather Stations






























Interactive Weather Map New forecast layout! Learn more

10-Day Weather Forecast

Advertisements
Track Severe Weather on mobile